KBJC/BJC METAR and TAF weather

Enter ICAO airport designator
Station Type Date Time Source
KBJC METAR 2022/08/12 15:47 UTC NOAA

KBJC 121547Z 34008G18KT 10SM SCT120 27/09 A3032


Station Type Date Time Source
KBJC Decoded METAR 2022/08/12 15:47 UTC NOAA

Broomfield / Jeffco, CO, United States (KBJC) 39-55N 105-07W
Aug 12, 2022 - 11:47 AM EDT / 2022.08.12 1547 UTC
Wind: from the NNW (340 degrees) at 9 MPH (8 KT) gusting to 21 MPH (18 KT):0
Visibility: 10 mile(s):0
Sky conditions: partly cloudy
Temperature: 80 F (27 C)
Dew Point: 48 F (9 C)
Relative Humidity: 32%
Pressure (altimeter): 30.32 in. Hg (1026 hPa)
ob: KBJC 121547Z 34008G18KT 10SM SCT120 27/09 A3032
cycle: 16

Station Type Date Time Source
KBJC TAF 2022/08/12 12:30 UTC NOAA

TAF KBJC 121129Z 1212/1312 25006KT P6SM FEW120 SCT220
FM121300 34007KT P6SM FEW120 SCT220
FM121700 03010KT P6SM FEW100 SCT150
FM122200 08008KT P6SM FEW100 BKN150
FM130400 36012KT P6SM FEW100 BKN150

Example: see airport list